createdAt,value
2023-03-03T00:00:48.953Z,97.14
2023-03-03T00:03:19.189Z,96.96
2023-03-03T00:05:46.057Z,96.92
2023-03-03T00:08:12.990Z,96.80
2023-03-03T00:10:39.521Z,96.62
2023-03-03T00:13:15.114Z,96.33
2023-03-03T00:15:41.702Z,96.42
2023-03-03T00:18:36.439Z,96.38
2023-03-03T00:21:12.321Z,96.41
2023-03-03T00:23:40.717Z,96.31
2023-03-03T00:26:44.138Z,96.46
2023-03-03T00:29:30.999Z,96.50
2023-03-03T00:32:23.779Z,96.73
2023-03-03T00:34:53.112Z,96.65
2023-03-03T00:37:34.751Z,96.70
2023-03-03T00:40:35.311Z,96.81
2023-03-03T00:43:12.164Z,96.56
2023-03-03T00:45:53.651Z,96.23
2023-03-03T00:48:30.866Z,96.24
2023-03-03T00:50:59.484Z,95.78
2023-03-03T00:53:28.177Z,95.83
2023-03-03T00:55:55.261Z,95.48
2023-03-03T00:58:23.089Z,95.22
2023-03-03T01:00:51.804Z,95.00
2023-03-03T01:03:23.435Z,95.00
2023-03-03T01:05:50.395Z,95.02
2023-03-03T01:08:17.443Z,95.13
2023-03-03T01:10:54.414Z,94.99
2023-03-03T01:13:24.247Z,94.88
2023-03-03T01:15:51.788Z,95.01
2023-03-03T01:18:18.802Z,94.69
2023-03-03T01:20:45.683Z,94.92
2023-03-03T01:23:12.776Z,95.17
2023-03-03T01:25:39.557Z,95.22
2023-03-03T01:28:06.076Z,95.06
2023-03-03T01:30:32.678Z,95.24
2023-03-03T01:32:59.240Z,95.26
2023-03-03T01:35:26.033Z,95.27
2023-03-03T01:37:52.604Z,95.24
2023-03-03T01:40:22.311Z,95.18
2023-03-03T01:42:49.149Z,94.89
2023-03-03T01:45:26.438Z,94.86
2023-03-03T01:47:55.776Z,94.95
2023-03-03T01:50:36.881Z,94.99
2023-03-03T01:53:06.380Z,94.83
2023-03-03T01:55:39.924Z,95.00
2023-03-03T01:58:13.367Z,95.00
2023-03-03T02:00:42.229Z,94.94
2023-03-03T02:03:09.778Z,94.58
2023-03-03T02:05:36.947Z,94.45
2023-03-03T02:08:04.152Z,94.41
2023-03-03T02:10:31.490Z,94.36
2023-03-03T02:12:59.066Z,94.05
2023-03-03T02:15:29.319Z,94.06
2023-03-03T02:18:00.590Z,94.07
2023-03-03T02:20:49.033Z,94.34
2023-03-03T02:23:21.598Z,94.71
2023-03-03T02:25:58.831Z,94.74
2023-03-03T02:28:30.550Z,95.04
2023-03-03T02:31:02.262Z,94.93
2023-03-03T02:33:29.661Z,95.04
2023-03-03T02:35:56.666Z,95.42
2023-03-03T02:38:40.090Z,95.29
2023-03-03T02:41:16.304Z,95.27
2023-03-03T02:44:12.998Z,95.00
2023-03-03T02:46:42.843Z,95.24
2023-03-03T02:49:11.059Z,95.21
2023-03-03T02:51:38.589Z,95.04
2023-03-03T02:54:05.817Z,95.17
2023-03-03T02:56:33.587Z,95.12
2023-03-03T02:59:00.426Z,95.57
2023-03-03T03:01:29.565Z,95.39
2023-03-03T03:03:56.356Z,95.45
2023-03-03T03:06:23.305Z,95.61
2023-03-03T03:08:49.998Z,95.33
2023-03-03T03:11:16.441Z,95.66
2023-03-03T03:13:43.180Z,95.47
2023-03-03T03:16:09.928Z,95.21
2023-03-03T03:18:36.444Z,95.53
2023-03-03T03:21:08.148Z,95.40
2023-03-03T03:23:35.114Z,95.51
2023-03-03T03:26:02.741Z,95.75
2023-03-03T03:28:29.892Z,95.58
2023-03-03T03:30:57.143Z,95.11
2023-03-03T03:33:24.997Z,95.56
2023-03-03T03:35:52.398Z,95.91
2023-03-03T03:38:19.274Z,95.67
2023-03-03T03:40:47.485Z,95.60
2023-03-03T03:43:13.970Z,95.92
2023-03-03T03:45:45.263Z,96.24
2023-03-03T03:48:13.677Z,96.40
2023-03-03T03:50:40.187Z,96.30
2023-03-03T03:53:07.420Z,96.19
2023-03-03T03:55:34.436Z,96.20
2023-03-03T03:58:00.953Z,96.22
2023-03-03T04:00:27.516Z,96.37
2023-03-03T04:02:58.463Z,96.25
2023-03-03T04:05:25.481Z,95.55
2023-03-03T04:07:52.117Z,95.82
2023-03-03T04:10:19.554Z,95.68
2023-03-03T04:12:46.931Z,95.71
2023-03-03T04:15:15.154Z,95.84
2023-03-03T04:17:42.853Z,95.79
2023-03-03T04:20:13.761Z,95.98
2023-03-03T04:22:40.249Z,96.03
2023-03-03T04:25:07.781Z,95.72
2023-03-03T04:27:39.139Z,95.51
2023-03-03T04:30:07.254Z,95.75
2023-03-03T04:32:33.930Z,95.87
2023-03-03T04:35:08.194Z,95.80
2023-03-03T04:37:38.867Z,95.95
2023-03-03T04:40:07.531Z,96.27
2023-03-03T04:42:35.231Z,96.37
2023-03-03T04:45:03.449Z,96.26
2023-03-03T04:47:32.265Z,96.18
2023-03-03T04:49:58.832Z,96.20
2023-03-03T04:52:25.410Z,96.66
2023-03-03T04:54:52.144Z,96.62
2023-03-03T04:57:18.770Z,96.54
2023-03-03T04:59:45.510Z,96.80
2023-03-03T05:02:13.144Z,96.33
2023-03-03T05:04:39.576Z,96.83
2023-03-03T05:07:06.217Z,96.89
2023-03-03T05:09:32.649Z,97.29
2023-03-03T05:11:59.018Z,96.90
2023-03-03T05:14:26.962Z,97.32
2023-03-03T05:16:53.677Z,97.53
2023-03-03T05:19:20.127Z,97.06
2023-03-03T05:21:46.493Z,97.71
2023-03-03T05:24:14.106Z,97.48
2023-03-03T05:26:42.190Z,97.69
2023-03-03T05:29:09.579Z,97.56
2023-03-03T05:31:36.669Z,97.73
2023-03-03T05:34:03.267Z,97.83
2023-03-03T05:36:29.684Z,97.30
2023-03-03T05:38:56.165Z,97.40
2023-03-03T05:41:22.851Z,97.29
2023-03-03T05:43:49.313Z,97.37
2023-03-03T05:46:15.737Z,97.52
2023-03-03T05:48:42.297Z,97.58
2023-03-03T05:51:08.910Z,97.41
2023-03-03T05:53:35.381Z,97.43
2023-03-03T05:56:02.167Z,97.00
2023-03-03T05:58:28.705Z,96.94
2023-03-03T06:00:55.104Z,96.67
2023-03-03T06:03:21.894Z,96.83
2023-03-03T06:05:48.749Z,96.62
2023-03-03T06:08:15.270Z,96.02
2023-03-03T06:10:41.727Z,95.92
2023-03-03T06:13:11.189Z,96.02
2023-03-03T06:15:37.999Z,95.63
2023-03-03T06:18:04.556Z,95.79
2023-03-03T06:20:31.637Z,95.28
2023-03-03T06:22:58.191Z,95.21
2023-03-03T06:25:24.576Z,95.15
2023-03-03T06:27:50.998Z,95.12
2023-03-03T06:30:18.820Z,95.15
2023-03-03T06:32:45.783Z,94.61
2023-03-03T06:35:12.321Z,94.87
2023-03-03T06:37:39.358Z,95.16
2023-03-03T06:40:06.794Z,95.05
2023-03-03T06:42:33.227Z,94.58
2023-03-03T06:44:59.690Z,94.74
2023-03-03T06:47:26.332Z,94.81
2023-03-03T06:49:53.380Z,94.53
2023-03-03T06:52:25.799Z,94.67
2023-03-03T06:54:57.880Z,94.93
2023-03-03T06:57:30.484Z,94.83
2023-03-03T07:00:17.755Z,95.13
2023-03-03T07:02:44.185Z,94.61
2023-03-03T07:05:15.111Z,94.21
2023-03-03T07:07:41.938Z,94.50
2023-03-03T07:10:28.800Z,94.44
2023-03-03T07:13:02.005Z,94.28
2023-03-03T07:15:35.122Z,94.03
2023-03-03T07:18:03.082Z,93.96
2023-03-03T07:20:36.622Z,94.12
2023-03-03T07:23:34.366Z,94.24
2023-03-03T07:26:00.796Z,94.02
2023-03-03T07:28:29.572Z,94.45
2023-03-03T07:30:57.681Z,94.22
2023-03-03T07:33:34.946Z,93.89
2023-03-03T07:36:03.592Z,94.26
2023-03-03T07:38:42.056Z,94.13
2023-03-03T07:41:25.625Z,94.18
2023-03-03T07:43:57.112Z,93.97
2023-03-03T07:46:29.193Z,94.33
2023-03-03T07:48:58.959Z,93.88
2023-03-03T07:51:28.962Z,93.95
2023-03-03T07:54:18.320Z,93.73
2023-03-03T07:56:45.726Z,93.54
2023-03-03T07:59:24.465Z,93.86
2023-03-03T08:01:58.715Z,94.01
2023-03-03T08:05:05.334Z,93.50
2023-03-03T08:07:35.517Z,93.29
2023-03-03T08:10:02.258Z,93.39
2023-03-03T08:12:39.310Z,93.25
2023-03-03T08:15:19.397Z,92.97
2023-03-03T08:17:47.069Z,93.10
2023-03-03T08:20:34.892Z,93.30
2023-03-03T08:23:01.402Z,93.08
2023-03-03T08:25:27.813Z,93.24
2023-03-03T08:27:54.610Z,93.14
2023-03-03T08:30:21.014Z,93.12
2023-03-03T08:32:47.892Z,93.39
2023-03-03T08:35:14.291Z,93.32
2023-03-03T08:37:40.669Z,93.29
2023-03-03T08:40:07.845Z,93.03
2023-03-03T08:42:34.252Z,92.20
2023-03-03T08:45:01.004Z,92.36
2023-03-03T08:47:27.391Z,92.58
2023-03-03T08:49:54.434Z,92.50
2023-03-03T08:52:21.008Z,92.42
2023-03-03T08:54:47.473Z,92.40
2023-03-03T08:57:13.943Z,92.43
2023-03-03T08:59:40.554Z,92.40
2023-03-03T09:02:07.262Z,92.32
2023-03-03T09:04:34.335Z,92.32
2023-03-03T09:07:00.779Z,92.33
2023-03-03T09:09:27.642Z,92.54
2023-03-03T09:11:58.367Z,92.41
2023-03-03T09:14:28.893Z,92.26
2023-03-03T09:16:56.738Z,91.98
2023-03-03T09:19:32.277Z,91.40
2023-03-03T09:22:16.579Z,91.60
2023-03-03T09:24:42.968Z,91.68
2023-03-03T09:27:29.369Z,91.55
2023-03-03T09:30:01.131Z,91.38
2023-03-03T09:32:35.166Z,91.12
2023-03-03T09:35:40.279Z,91.03
2023-03-03T09:38:33.795Z,90.80
2023-03-03T09:41:37.809Z,91.21
2023-03-03T09:44:17.176Z,91.05
2023-03-03T09:46:52.505Z,91.34
2023-03-03T09:49:18.879Z,90.92
2023-03-03T09:52:03.371Z,90.67
2023-03-03T09:55:01.012Z,90.47
2023-03-03T09:57:32.655Z,90.52
2023-03-03T10:00:18.708Z,90.15
2023-03-03T10:02:53.486Z,90.07
2023-03-03T10:05:42.202Z,89.57
2023-03-03T10:08:26.937Z,89.41
2023-03-03T10:11:03.276Z,89.74
2023-03-03T10:13:40.172Z,88.63
2023-03-03T10:16:32.308Z,89.20
2023-03-03T10:19:02.928Z,89.26
2023-03-03T10:21:50.570Z,88.87
2023-03-03T10:24:29.324Z,88.78
2023-03-03T10:27:22.005Z,88.38
2023-03-03T10:30:39.970Z,87.87
2023-03-03T10:33:20.715Z,88.20
2023-03-03T10:36:07.084Z,88.32
2023-03-03T10:38:55.452Z,87.98
2023-03-03T10:41:27.685Z,88.27
2023-03-03T10:44:18.307Z,87.92
2023-03-03T10:47:22.409Z,87.85
2023-03-03T10:50:15.266Z,87.63
2023-03-03T10:53:05.741Z,87.43
2023-03-03T10:55:46.607Z,87.20
2023-03-03T10:58:40.746Z,86.88
2023-03-03T11:01:22.338Z,86.78
2023-03-03T11:04:25.686Z,86.25
2023-03-03T11:07:08.781Z,86.35
2023-03-03T11:09:41.353Z,86.25
2023-03-03T11:12:17.869Z,85.95
2023-03-03T11:14:55.452Z,85.53
2023-03-03T11:17:27.884Z,85.77
2023-03-03T11:20:16.732Z,85.49
2023-03-03T11:22:53.776Z,85.21
2023-03-03T11:25:30.249Z,85.79
2023-03-03T11:28:10.799Z,84.76
2023-03-03T11:30:49.444Z,84.98
2023-03-03T11:33:23.127Z,84.69
2023-03-03T11:35:49.484Z,83.82
2023-03-03T11:38:33.291Z,83.95
2023-03-03T11:41:11.588Z,83.65
2023-03-03T11:43:49.696Z,83.58
2023-03-03T11:46:20.151Z,82.94
2023-03-03T11:49:05.276Z,83.78
2023-03-03T11:51:50.654Z,82.68
2023-03-03T11:54:28.901Z,82.91
2023-03-03T11:57:12.763Z,82.37
2023-03-03T11:59:56.008Z,81.80
2023-03-03T12:02:46.988Z,81.84
2023-03-03T12:05:31.509Z,81.95
2023-03-03T12:08:31.148Z,82.22
2023-03-03T12:11:09.732Z,82.48
2023-03-03T12:13:53.548Z,81.64
2023-03-03T12:16:50.942Z,81.74
2023-03-03T12:19:26.435Z,81.18
2023-03-03T12:22:04.904Z,80.85
2023-03-03T12:24:50.546Z,80.56
2023-03-03T12:27:33.739Z,80.39
2023-03-03T12:30:24.632Z,81.05
2023-03-03T12:33:11.027Z,80.93
2023-03-03T12:35:40.586Z,79.66
2023-03-03T12:38:51.592Z,79.60
2023-03-03T12:41:56.133Z,79.29
2023-03-03T12:44:44.154Z,78.55
2023-03-03T12:47:52.364Z,78.58
2023-03-03T12:50:31.014Z,78.18
2023-03-03T12:53:03.421Z,77.05
2023-03-03T12:55:47.491Z,76.46
2023-03-03T12:58:45.140Z,77.09
2023-03-03T13:01:20.404Z,76.19
2023-03-03T13:04:05.757Z,76.18
2023-03-03T13:06:40.269Z,76.00
2023-03-03T13:09:06.715Z,74.83
2023-03-03T13:11:53.897Z,73.72
2023-03-03T13:14:33.850Z,72.06
2023-03-03T13:17:12.208Z,71.29
2023-03-03T13:19:50.420Z,68.53
2023-03-03T13:22:31.572Z,66.35
2023-03-03T13:25:23.135Z,64.46
2023-03-03T13:27:54.399Z,62.84
2023-03-03T13:30:28.284Z,59.94
2023-03-03T13:33:16.892Z,57.50
2023-03-03T13:36:07.641Z,56.50
2023-03-03T13:38:57.815Z,55.19
2023-03-03T13:41:27.181Z,53.54
2023-03-03T13:43:59.904Z,52.30
2023-03-03T13:47:02.302Z,50.06
2023-03-03T13:49:36.104Z,48.98
2023-03-03T13:52:10.480Z,48.11
2023-03-03T13:55:04.806Z,48.28
2023-03-03T13:58:00.184Z,47.58
2023-03-03T14:00:35.947Z,47.27
2023-03-03T14:03:15.023Z,45.84
2023-03-03T14:06:04.569Z,45.14
2023-03-03T14:08:49.937Z,45.99
2023-03-03T14:11:26.439Z,45.65
2023-03-03T14:14:27.090Z,45.52
2023-03-03T14:17:06.046Z,45.94
2023-03-03T14:19:36.957Z,46.19
2023-03-03T14:22:16.381Z,46.06
2023-03-03T14:25:06.230Z,46.07
2023-03-03T14:27:40.681Z,45.67
2023-03-03T14:30:22.436Z,45.92
2023-03-03T14:33:07.249Z,45.67
2023-03-03T14:35:41.235Z,45.54
2023-03-03T14:38:13.785Z,45.49
2023-03-03T14:40:45.506Z,44.86
2023-03-03T14:43:36.508Z,44.45
2023-03-03T14:46:37.313Z,44.31
2023-03-03T14:49:25.983Z,44.16
2023-03-03T14:51:52.500Z,45.39
2023-03-03T14:54:34.670Z,45.60
2023-03-03T14:57:46.096Z,46.14
2023-03-03T15:00:12.920Z,45.77
2023-03-03T15:03:16.359Z,46.86
2023-03-03T15:05:57.947Z,47.44
2023-03-03T15:08:34.356Z,47.54
2023-03-03T15:11:28.223Z,47.97
2023-03-03T15:14:10.052Z,48.42
2023-03-03T15:16:36.556Z,48.83
2023-03-03T15:19:44.728Z,49.81
2023-03-03T15:22:36.544Z,50.21
2023-03-03T15:25:18.765Z,50.65
2023-03-03T15:28:22.542Z,51.55
2023-03-03T15:30:58.949Z,51.81
2023-03-03T15:33:40.823Z,52.13
2023-03-03T15:36:15.474Z,52.92
2023-03-03T15:38:54.558Z,53.34
2023-03-03T15:41:42.588Z,53.90
2023-03-03T15:44:35.023Z,54.07
2023-03-03T15:47:28.570Z,54.24
2023-03-03T15:50:06.608Z,54.70
2023-03-03T15:52:36.098Z,54.69
2023-03-03T15:55:29.372Z,55.45
2023-03-03T15:58:13.611Z,55.40
2023-03-03T16:01:10.668Z,55.90
2023-03-03T16:03:46.327Z,56.25
2023-03-03T16:06:22.171Z,56.71
2023-03-03T16:09:02.942Z,56.76
2023-03-03T16:11:47.061Z,57.20
2023-03-03T16:14:25.423Z,57.61
2023-03-03T16:17:03.289Z,58.13
2023-03-03T16:19:45.133Z,58.82
2023-03-03T16:22:41.975Z,59.38
2023-03-03T16:25:32.090Z,60.22
2023-03-03T16:28:05.803Z,60.37
2023-03-03T16:30:34.874Z,60.96
2023-03-03T16:33:13.563Z,61.41
2023-03-03T16:35:50.514Z,61.88
2023-03-03T16:38:24.273Z,62.40
2023-03-03T16:41:01.610Z,62.82
2023-03-03T16:43:27.921Z,63.48
2023-03-03T16:46:02.707Z,63.93
2023-03-03T16:48:36.166Z,64.23
2023-03-03T16:51:25.971Z,64.74
2023-03-03T16:54:16.224Z,65.52
2023-03-03T16:56:48.985Z,65.97
2023-03-03T16:59:36.428Z,66.70
2023-03-03T17:02:21.675Z,67.46
2023-03-03T17:05:00.582Z,68.17
2023-03-03T17:08:13.462Z,69.17
2023-03-03T17:10:50.899Z,69.62
2023-03-03T17:13:32.347Z,70.24
2023-03-03T17:16:51.469Z,71.13
2023-03-03T17:19:41.518Z,71.43
2023-03-03T17:22:46.268Z,72.43
2023-03-03T17:25:21.333Z,73.62
2023-03-03T17:28:13.572Z,73.80
2023-03-03T17:30:59.544Z,74.08
2023-03-03T17:33:37.977Z,75.02
2023-03-03T17:36:18.304Z,74.77
2023-03-03T17:39:18.215Z,75.68
2023-03-03T17:42:04.166Z,76.21
2023-03-03T17:45:02.426Z,76.98
2023-03-03T17:48:03.729Z,77.32
2023-03-03T17:50:36.029Z,78.21
2023-03-03T17:53:26.685Z,78.57
2023-03-03T17:56:17.871Z,79.95
2023-03-03T17:59:05.920Z,80.96
2023-03-03T18:02:02.552Z,81.53
2023-03-03T18:05:00.941Z,82.83
2023-03-03T18:07:43.597Z,83.39
2023-03-03T18:10:32.798Z,84.32
2023-03-03T18:13:07.333Z,85.19
2023-03-03T18:15:36.649Z,85.44
2023-03-03T18:18:41.184Z,85.93
2023-03-03T18:21:20.901Z,86.41
2023-03-03T18:23:48.967Z,86.66
2023-03-03T18:26:41.249Z,86.22
2023-03-03T18:29:21.235Z,86.10
2023-03-03T18:31:54.254Z,86.03
2023-03-03T18:34:20.619Z,85.28
2023-03-03T18:37:08.909Z,84.88
2023-03-03T18:39:41.626Z,84.24
2023-03-03T18:42:12.365Z,83.99
2023-03-03T18:44:39.232Z,83.96
2023-03-03T18:47:05.643Z,83.86
2023-03-03T18:50:05.333Z,83.38
2023-03-03T18:52:35.177Z,82.97
2023-03-03T18:55:10.633Z,81.89
2023-03-03T18:57:38.180Z,83.09
2023-03-03T19:00:42.984Z,82.23
2023-03-03T19:03:28.473Z,80.53
2023-03-03T19:05:57.812Z,80.62
2023-03-03T19:08:44.606Z,80.01
2023-03-03T19:11:36.552Z,79.37
2023-03-03T19:14:18.532Z,78.91
2023-03-03T19:16:45.497Z,77.99
2023-03-03T19:19:14.718Z,78.01
2023-03-03T19:21:42.823Z,78.36
2023-03-03T19:24:27.262Z,78.71
2023-03-03T19:27:11.608Z,79.45
2023-03-03T19:29:44.176Z,79.62
2023-03-03T19:32:26.209Z,79.93
2023-03-03T19:35:15.423Z,79.75
2023-03-03T19:37:55.539Z,79.70
2023-03-03T19:40:58.215Z,79.36
2023-03-03T19:43:35.574Z,78.41
2023-03-03T19:46:28.906Z,77.90
2023-03-03T19:49:24.199Z,78.48
2023-03-03T19:52:05.193Z,78.70
2023-03-03T19:54:46.874Z,78.27
2023-03-03T19:57:28.618Z,77.80
2023-03-03T20:00:05.443Z,77.06
2023-03-03T20:03:21.186Z,77.11
2023-03-03T20:06:20.411Z,78.20
2023-03-03T20:09:09.746Z,78.03
2023-03-03T20:11:48.347Z,77.71
2023-03-03T20:14:39.226Z,77.42
2023-03-03T20:17:44.385Z,77.27
2023-03-03T20:20:36.076Z,76.42
2023-03-03T20:23:29.613Z,75.71
2023-03-03T20:26:43.633Z,76.04
2023-03-03T20:29:36.418Z,77.44
2023-03-03T20:32:14.964Z,77.83
2023-03-03T20:35:09.697Z,78.00
2023-03-03T20:37:58.984Z,76.15
2023-03-03T20:40:38.909Z,75.11
2023-03-03T20:43:31.026Z,74.66
2023-03-03T20:46:16.476Z,74.16
2023-03-03T20:49:01.524Z,73.68
2023-03-03T20:51:46.969Z,73.58
2023-03-03T20:54:24.409Z,72.79
2023-03-03T20:57:21.813Z,73.07
2023-03-03T21:00:00.439Z,72.59
2023-03-03T21:02:40.106Z,72.52
2023-03-03T21:05:18.698Z,72.72
2023-03-03T21:07:57.519Z,72.52
2023-03-03T21:10:27.491Z,72.29
2023-03-03T21:12:58.521Z,72.70
2023-03-03T21:15:31.053Z,72.74
2023-03-03T21:17:58.795Z,72.67
2023-03-03T21:20:32.484Z,72.70
2023-03-03T21:22:59.637Z,72.99
2023-03-03T21:25:41.091Z,73.27
2023-03-03T21:28:29.787Z,73.28
2023-03-03T21:31:04.064Z,73.04
2023-03-03T21:33:42.507Z,72.89
2023-03-03T21:36:11.023Z,72.71
2023-03-03T21:38:38.896Z,72.42
2023-03-03T21:41:06.562Z,71.80
2023-03-03T21:43:38.300Z,71.41
2023-03-03T21:46:05.238Z,71.49
2023-03-03T21:48:32.178Z,70.59
2023-03-03T21:50:58.549Z,70.75
2023-03-03T21:53:26.596Z,70.78
2023-03-03T21:55:53.671Z,69.89
2023-03-03T21:58:20.268Z,69.45
2023-03-03T22:00:46.939Z,69.67
2023-03-03T22:03:15.182Z,69.70
2023-03-03T22:05:41.744Z,69.65
2023-03-03T22:08:08.132Z,69.73
2023-03-03T22:10:34.529Z,69.78
2023-03-03T22:13:01.587Z,70.22
2023-03-03T22:15:30.398Z,70.21
2023-03-03T22:17:57.080Z,70.56
2023-03-03T22:20:23.494Z,69.87
2023-03-03T22:22:49.899Z,70.26
2023-03-03T22:25:16.451Z,70.62
2023-03-03T22:27:42.854Z,70.25
2023-03-03T22:30:10.089Z,70.12
2023-03-03T22:32:36.471Z,70.41
2023-03-03T22:35:02.947Z,70.34
2023-03-03T22:37:29.317Z,70.86
2023-03-03T22:39:56.092Z,71.04
2023-03-03T22:42:23.366Z,71.23
2023-03-03T22:44:49.774Z,71.56
2023-03-03T22:47:16.410Z,71.93
2023-03-03T22:49:42.833Z,72.15
2023-03-03T22:52:09.223Z,71.96
2023-03-03T22:54:35.604Z,71.87
2023-03-03T22:57:01.965Z,72.11
2023-03-03T22:59:28.518Z,72.11
2023-03-03T23:01:56.018Z,71.80
2023-03-03T23:04:22.490Z,72.04
2023-03-03T23:06:49.937Z,72.06
2023-03-03T23:09:16.306Z,72.44
2023-03-03T23:11:42.692Z,72.54
2023-03-03T23:14:09.156Z,72.52
2023-03-03T23:16:35.549Z,72.58
2023-03-03T23:19:02.026Z,72.61
2023-03-03T23:21:28.495Z,72.62
2023-03-03T23:23:54.924Z,72.94
2023-03-03T23:26:21.514Z,72.93
2023-03-03T23:28:47.998Z,73.07
2023-03-03T23:31:14.545Z,72.96
2023-03-03T23:33:40.946Z,73.02
2023-03-03T23:36:07.640Z,73.75
2023-03-03T23:38:34.058Z,73.02
2023-03-03T23:41:00.427Z,73.18
2023-03-03T23:43:26.815Z,73.46
2023-03-03T23:45:53.256Z,73.40
2023-03-03T23:48:20.628Z,73.17
2023-03-03T23:50:48.210Z,73.55
2023-03-03T23:53:14.620Z,73.63
2023-03-03T23:55:41.468Z,74.14
2023-03-03T23:58:07.925Z,73.51
